Latest Weather Observations for Devonport Airport

IDT60801

Issued at 10:31 pm EST Thursday 26 May 2016 (issued every 30 minutes, with the page automatically refreshed every 10 minutes)

About weather observations | Map of weather stations | Latest weather observations for TAS | Other Formats
Station Details ID: 091126 Name: DEVONPORT AIRPORT Lat: -41.17 Lon: 146.43 Height: 8.0 m
Data from the previous 72 hours. | See also: Recent months at Devonport Airport
Date/Time
EST
Temp
°C
App
Temp
°C
Dew
Point
Rel
Hum
%
Delta-T
°C
Wind Press
QNH
hPa
Press
MSL
hPa
Rain
since 9 am
mm
Dir
 
Spd
km/h
Gust
km/h
Spd
kts
Gust
kts
26/10:30pm 6.6 3.9 5.7 94 0.4 SSW 9 11 5 6 1002.8 1002.8 0.0
26/10:00pm 6.9 4.2 5.5 91 0.6 S 9 9 5 5 1002.8 1002.8 0.0
26/09:30pm 6.5 3.3 5.3 92 0.5 SSW 11 13 6 7 1002.8 1002.8 0.0
26/09:00pm 7.1 3.7 6.0 93 0.5 S 13 15 7 8 1002.6 1002.6 0.0
26/08:30pm 7.6 5.0 5.9 89 0.8 SSE 9 13 5 7 1002.2 1002.2 0.0
26/08:00pm 8.7 5.0 6.3 85 1.1 SSE 15 17 8 9 1002.2 1002.2 0.0
26/07:30pm 7.9 4.9 6.0 88 0.9 S 11 15 6 8 1002.2 1002.2 0.0
26/07:00pm 8.6 6.1 6.7 88 0.9 SSE 9 11 5 6 1002.0 1002.0 0.0
26/06:30pm 8.5 5.6 6.5 87 0.9 SSE 11 13 6 7 1001.7 1001.7 0.0
26/06:00pm 8.9 6.4 6.5 85 1.1 S 9 11 5 6 1001.5 1001.5 0.0
26/05:30pm 10.1 8.1 7.2 82 1.4 SSE 7 9 4 5 1001.2 1001.2 0.0
26/05:00pm 10.5 10.0 7.7 83 1.4 CALM 0 0 0 0 1000.9 1000.9 0.0
26/04:30pm 12.1 11.2 7.6 74 2.2 W 2 6 1 3 1000.6 1000.6 0.0
26/04:00pm 12.6 12.3 8.5 76 2.1 CALM 0 0 0 0 1000.3 1000.3 0.0
26/03:30pm 12.5 10.3 7.8 73 2.3 S 9 13 5 7 1000.0 1000.0 0.0
26/03:00pm 13.0 10.5 8.1 72 2.4 S 11 15 6 8 999.7 999.7 0.0
26/02:30pm 12.7 9.9 8.4 75 2.1 SSE 13 17 7 9 999.6 999.6 0.0
26/02:00pm 12.9 10.4 8.0 72 2.4 S 11 15 6 8 999.9 999.9 0.0
26/01:30pm 12.9 9.7 8.4 74 2.2 S 15 20 8 11 1000.0 1000.0 0.0
26/01:00pm 12.8 9.9 9.6 81 1.6 S 15 20 8 11 1000.1 1000.1 0.0
26/12:30pm 12.6 9.4 10.0 84 1.3 S 17 24 9 13 1000.3 1000.3 0.0
26/12:00pm 12.3 9.2 10.2 87 1.1 S 17 22 9 12 1000.5 1000.5 0.0
26/11:30am 11.8 8.8 10.5 92 0.7 S 17 22 9 12 1000.6 1000.6 0.0
26/11:00am 11.4 8.3 10.3 93 0.6 S 17 20 9 11 1000.9 1000.9 0.0
26/10:30am 10.9 8.1 10.0 94 0.5 S 15 20 8 11 1001.2 1001.2 0.0
26/10:17am 10.8 7.5 9.7 93 0.6 S 17 20 9 11 1001.2 1001.2 0.0
26/10:00am 10.9 8.1 10.0 94 0.5 S 15 20 8 11 1001.3 1001.3 0.0
26/09:47am 10.8 8.4 9.9 94 0.5 S 13 17 7 9 1001.4 1001.4 0.0
26/09:30am 10.9 8.0 9.8 93 0.6 S 15 20 8 11 1001.4 1001.4 0.0
26/09:00am 10.6 8.5 9.8 95 0.4 SSW 11 17 6 9 1001.3 1001.3 1.6
26/08:30am 10.4 8.0 9.9 97 0.3 S 13 17 7 9 1001.2 1001.2 1.6
26/08:00am 10.0 7.9 9.7 98 0.2 S 11 15 6 8 1001.3 1001.3 1.6
26/07:30am 10.2 7.8 9.9 98 0.2 S 13 17 7 9 1001.3 1001.3 1.6
26/07:00am 10.2 7.8 9.9 98 0.2 S 13 15 7 8 1001.1 1001.1 1.6
26/06:30am 10.2 7.8 9.9 98 0.2 SSW 13 15 7 8 1001.2 1001.2 1.6
26/06:25am 10.4 8.0 10.1 98 0.2 SSW 13 15 7 8 1001.3 1001.3 1.6
26/06:20am 10.6 8.7 10.4 99 0.1 SSW 11 15 6 8 1001.3 1001.3 1.6
26/06:00am 10.2 8.5 9.9 98 0.2 SSE 9 13 5 7 1001.3 1001.3 1.6
26/05:45am 10.8 9.6 10.3 97 0.3 S 7 11 4 6 1001.3 1001.3 1.6
26/05:42am 10.9 9.7 10.4 97 0.3 S 7 13 4 7 1001.4 1001.4 1.6
26/05:30am 11.6 9.9 11.3 98 0.2 SSE 11 13 6 7 1001.1 1001.1 1.6
26/05:20am 11.8 10.1 11.3 97 0.3 S 11 15 6 8 1001.2 1001.2 1.6
26/05:00am 12.8 11.7 12.0 95 0.4 SSW 9 13 5 7 1001.4 1001.4 1.6
26/04:47am 13.3 12.0 12.4 94 0.5 NW 11 15 6 8 1001.4 1001.4 1.6
26/04:30am 13.5 10.7 12.6 94 0.5 NW 19 22 10 12 1001.4 1001.4 1.6
26/04:09am 13.6 10.6 12.5 93 0.6 NNW 20 28 11 15 1001.4 1001.4 1.6
26/04:00am 13.7 10.0 12.6 93 0.6 NNW 24 32 13 17 1001.4 1001.4 1.6
26/03:30am 13.5 8.6 12.6 94 0.5 NW 30 35 16 19 1001.7 1001.7 1.6
26/03:00am 13.4 8.2 12.8 96 0.3 NW 32 39 17 21 1002.1 1002.1 1.6
26/02:51am 13.5 8.6 12.7 95 0.4 NW 30 37 16 20 1002.1 1002.1 1.6
26/02:30am 13.1 7.9 12.8 98 0.2 NW 32 39 17 21 1002.5 1002.5 1.6
26/02:00am 13.1 9.0 12.8 98 0.2 NW 26 35 14 19 1003.0 1003.0 1.0
26/01:30am 13.1 8.6 12.5 96 0.3 NW 28 37 15 20 1003.3 1003.3 0.2
26/01:27am 13.1 8.6 12.5 96 0.3 NW 28 37 15 20 1003.3 1003.3 0.2
26/01:06am 13.3 9.5 12.5 95 0.4 NW 24 30 13 16 1003.6 1003.6 0.2
26/01:00am 13.1 9.3 12.3 95 0.4 NW 24 30 13 16 1003.5 1003.5 0.2
26/12:30am 12.7 8.8 12.2 97 0.3 WNW 24 30 13 16 1004.0 1004.0 0.0
26/12:17am 12.8 8.2 12.2 96 0.3 NW 28 37 15 20 1004.1 1004.1 0.0
26/12:00am 13.1 9.6 12.2 94 0.5 NW 22 28 12 15 1004.6 1004.6 0.0
 
Date/Time
EST
Temp
°C
App
Temp
°C
Dew
Point
Rel
Hum
%
Delta-T
°C
Wind Press
QNH
hPa
Press
MSL
hPa
Rain
since 9 am
mm
Dir
 
Spd
km/h
Gust
km/h
Spd
kts
Gust
kts
25/11:53pm 13.1 8.8 12.0 93 0.6 NW 26 32 14 17 1004.7 1004.7 0.0
25/11:38pm 13.2 9.4 12.3 94 0.5 NW 24 30 13 16 1004.8 1004.8 0.0
25/11:30pm 13.3 8.6 11.9 91 0.7 WNW 28 35 15 19 1004.9 1004.9 0.0
25/11:03pm 14.0 8.8 11.5 85 1.3 NW 30 37 16 20 1005.2 1005.2 0.0
25/11:00pm 13.9 8.6 11.4 85 1.3 NW 30 37 16 20 1005.2 1005.2 0.0
25/10:49pm 13.9 8.6 11.2 84 1.4 NNW 30 35 16 19 1005.3 1005.3 0.0
25/10:30pm 14.0 9.1 11.2 83 1.5 NW 28 37 15 20 1005.6 1005.6 0.0
25/10:00pm 13.8 7.9 10.6 81 1.7 NW 32 41 17 22 1006.1 1006.1 0.0
25/09:30pm 13.7 7.7 10.7 82 1.6 NNW 33 43 18 23 1006.3 1006.3 0.0
25/09:00pm 13.6 7.5 10.6 82 1.6 NW 33 41 18 22 1006.3 1006.3 0.0
25/08:58pm 13.6 7.7 11.0 84 1.4 NW 33 41 18 22 1006.3 1006.3 0.0
25/08:46pm 13.5 9.2 10.7 83 1.5 WNW 24 41 13 22 1006.4 1006.4 0.0
25/08:30pm 11.5 9.7 9.6 88 1.0 W 9 22 5 12 1006.6 1006.6 0.0
25/08:24pm 9.9 8.4 8.5 91 0.7 S 6 11 3 6 1006.6 1006.6 0.0
25/08:00pm 9.0 6.0 7.8 92 0.6 S 13 17 7 9 1006.6 1006.6 0.0
25/07:30pm 9.2 5.8 7.6 90 0.8 S 15 17 8 9 1006.6 1006.6 0.0
25/07:00pm 9.7 6.0 8.0 89 0.8 SSE 17 20 9 11 1006.6 1006.6 0.0
25/06:30pm 10.0 6.7 8.1 88 0.9 SSE 15 20 8 11 1006.9 1006.9 0.0
25/06:00pm 9.7 6.7 7.8 88 0.9 SSE 13 17 7 9 1007.1 1007.1 0.0
25/05:30pm 9.5 6.5 7.6 88 0.9 S 13 17 7 9 1007.3 1007.3 0.0
25/05:00pm 9.7 6.7 7.5 86 1.0 SSE 13 17 7 9 1007.4 1007.4 0.0
25/04:30pm 9.9 7.7 7.7 86 1.1 S 9 13 5 7 1007.7 1007.7 0.0
25/04:00pm 10.2 7.5 7.4 83 1.3 S 11 13 6 7 1008.1 1008.1 0.0
25/03:30pm 10.4 7.7 7.3 81 1.5 SSW 11 17 6 9 1008.4 1008.4 0.0
25/03:00pm 10.6 7.8 6.9 78 1.8 S 11 15 6 8 1008.5 1008.5 0.0
25/02:30pm 11.3 8.6 7.2 76 2.0 SSE 11 13 6 7 1008.6 1008.6 0.0
25/02:00pm 11.1 8.6 6.5 73 2.2 SE 9 11 5 6 1009.1 1009.1 0.0
25/01:30pm 11.0 8.9 5.7 70 2.4 SE 6 7 3 4 1009.8 1009.8 0.0
25/01:00pm 10.7 8.5 6.1 73 2.1 SE 7 11 4 6 1010.1 1010.1 0.0
25/12:30pm 9.7 6.7 6.2 79 1.6 SSE 11 13 6 7 1010.7 1010.7 0.0
25/12:00pm 8.0 5.2 5.1 82 1.3 S 9 13 5 7 1011.3 1011.3 0.0
25/11:30am 8.2 4.9 4.6 78 1.6 SSE 11 13 6 7 1011.8 1011.8 0.0
25/11:00am 7.4 4.1 4.5 82 1.3 SSE 11 13 6 7 1012.3 1012.4 0.0
25/10:30am 7.2 3.5 4.7 84 1.1 SSE 13 17 7 9 1013.1 1013.2 0.0
25/10:00am 6.2 2.4 3.7 84 1.1 S 13 20 7 11 1012.9 1013.0 0.0
25/09:30am 5.5 1.6 3.3 86 0.9 SSE 13 19 7 10 1013.3 1013.4 0.0
25/09:00am 4.8 0.8 3.1 89 0.7 S 13 17 7 9 1014.0 1014.1 0.0
25/08:30am 4.3 0.6 2.5 88 0.7 SSW 11 15 6 8 1014.2 1014.3 0.0
25/08:00am 3.5 -1.0 2.3 92 0.5 SSE 15 19 8 10 1014.2 1014.3 0.0
25/07:30am 2.6 -1.6 1.7 94 0.3 S 13 17 7 9 1014.3 1014.4 0.0
25/07:00am 2.3 -2.4 1.1 92 0.5 SSW 15 19 8 10 1014.0 1014.1 0.0
25/06:30am 2.7 -1.5 1.4 91 0.5 S 13 15 7 8 1013.6 1013.7 0.0
25/06:00am 2.3 -2.3 1.3 93 0.4 S 15 20 8 11 1013.9 1014.0 0.0
25/05:30am 2.1 -2.6 1.2 94 0.3 S 15 17 8 9 1014.6 1014.7 0.0
25/05:00am 3.1 -1.1 1.5 89 0.6 S 13 17 7 9 1014.4 1014.5 0.0
25/04:30am 2.8 -1.4 1.5 91 0.5 S 13 15 7 8 1014.8 1014.9 0.0
25/04:00am 3.0 -0.8 1.5 90 0.6 S 11 17 6 9 1015.1 1015.2 0.0
25/03:30am 2.9 -2.1 1.6 91 0.5 SSE 17 20 9 11 1014.9 1015.0 0.0
25/03:00am 3.1 -1.4 1.9 92 0.5 S 15 17 8 9 1014.8 1014.9 0.0
25/02:30am 3.1 -1.1 1.8 91 0.5 S 13 17 7 9 1014.7 1014.8 0.0
25/02:00am 3.2 -0.2 2.0 92 0.5 S 9 13 5 7 1015.0 1015.1 0.0
25/01:30am 3.2 -0.9 2.2 93 0.4 SSE 13 19 7 10 1015.1 1015.2 0.0
25/01:00am 4.0 0.0 2.7 91 0.5 S 13 13 7 7 1015.3 1015.4 0.0
25/12:30am 3.6 -0.8 2.6 93 0.4 SSE 15 15 8 8 1015.6 1015.7 0.0
25/12:00am 3.7 0.1 2.7 93 0.4 SSW 11 13 6 7 1016.1 1016.2 0.0
 
Date/Time
EST
Temp
°C
App
Temp
°C
Dew
Point
Rel
Hum
%
Delta-T
°C
Wind Press
QNH
hPa
Press
MSL
hPa
Rain
since 9 am
mm
Dir
 
Spd
km/h
Gust
km/h
Spd
kts
Gust
kts
24/11:30pm 3.7 -0.4 2.5 92 0.5 SSE 13 15 7 8 1015.9 1016.0 0.0
24/11:00pm 4.0 0.0 2.7 91 0.5 S 13 15 7 8 1015.9 1016.0 0.0
24/10:30pm 4.5 1.9 3.2 91 0.5 ESE 6 9 3 5 1016.1 1016.2 0.0
24/10:00pm 4.0 1.1 2.7 91 0.5 ESE 7 9 4 5 1016.4 1016.5 0.0
24/09:30pm 4.8 3.2 2.3 84 1.0 CALM 0 0 0 0 1016.8 1016.9 0.0
24/09:00pm 5.2 2.5 2.4 82 1.1 W 6 7 3 4 1016.9 1017.0 0.0
24/08:30pm 7.4 4.3 3.6 77 1.6 SSW 9 13 5 7 1016.8 1016.9 0.0
24/08:00pm 7.6 4.4 3.3 74 1.8 SW 9 13 5 7 1016.7 1016.8 0.0
24/07:30pm 9.2 5.5 4.2 71 2.2 SW 13 17 7 9 1016.4 1016.5 0.0
24/07:00pm 9.7 6.0 4.5 70 2.3 SW 13 19 7 10 1016.3 1016.4 0.0
24/06:30pm 9.1 5.8 4.7 74 2.0 WSW 11 15 6 8 1016.1 1016.2 0.0
24/06:00pm 8.3 5.9 4.3 76 1.7 W 6 9 3 5 1016.0 1016.1 0.0
24/05:30pm 8.6 4.1 4.2 74 1.9 WSW 17 19 9 10 1015.5 1015.6 0.0
24/05:00pm 10.0 5.2 4.8 70 2.3 WSW 19 20 10 11 1015.5 1015.6 0.0
24/04:30pm 12.1 8.9 5.3 63 3.1 W 11 15 6 8 1015.4 1015.5 0.0
24/04:00pm 13.1 7.7 4.5 56 3.9 WSW 22 28 12 15 1015.0 1015.1 0.0
24/03:30pm 13.7 8.4 4.8 55 4.1 WSW 22 28 12 15 1014.7 1014.8 0.0
24/03:00pm 14.3 10.1 5.7 56 4.1 WSW 17 20 9 11 1014.5 1014.6 0.0
24/02:30pm 14.2 9.8 4.5 52 4.5 WSW 17 20 9 11 1014.3 1014.4 0.0
24/02:00pm 14.2 9.1 4.2 51 4.6 WSW 20 26 11 14 1014.5 1014.6 0.0
24/01:30pm 14.2 9.3 5.3 55 4.2 W 20 30 11 16 1014.4 1014.5 0.0
24/01:00pm 14.1 9.3 4.4 52 4.5 W 19 26 10 14 1014.4 1014.5 0.0
24/12:30pm 13.5 8.6 4.1 53 4.3 W 19 24 10 13 1014.7 1014.8 0.0
24/12:00pm 13.7 9.4 5.3 57 3.9 W 17 28 9 15 1014.6 1014.7 0.0
24/11:30am 13.3 8.7 5.5 59 3.7 W 19 26 10 14 1014.9 1015.0 0.0
24/11:00am 13.2 8.6 5.6 60 3.6 WSW 19 26 10 14 1015.2 1015.3 0.0
24/10:30am 12.4 7.4 4.4 58 3.6 W 20 32 11 17 1015.5 1015.6 0.0
24/10:00am 11.5 7.4 6.2 70 2.5 WNW 17 20 9 11 1015.4 1015.5 0.0
24/09:30am 10.5 7.5 5.9 73 2.1 W 11 15 6 8 1015.5 1015.6 0.0
24/09:00am 9.7 7.5 6.1 78 1.7 SE 7 9 4 5 1015.3 1015.4 0.0
24/08:30am 8.0 5.3 5.5 84 1.1 SE 9 13 5 7 1015.1 1015.2 0.0
24/08:00am 6.0 3.5 4.0 87 0.8 WSW 6 9 3 5 1015.0 1015.1 0.0
24/07:30am 4.6 1.0 3.1 90 0.6 WSW 11 15 6 8 1014.5 1014.6 0.0
24/07:00am 4.7 0.3 2.7 87 0.8 WSW 15 17 8 9 1014.0 1014.1 0.0
24/06:30am 6.0 1.0 3.8 86 0.9 WSW 19 22 10 12 1013.7 1013.8 0.0
24/06:00am 4.1 0.1 2.6 90 0.6 WSW 13 15 7 8 1013.6 1013.7 0.0
24/05:30am 4.2 -1.0 2.6 89 0.6 W 19 22 10 12 1013.4 1013.5 0.0
24/05:00am 5.9 3.2 3.7 86 0.9 SW 7 11 4 6 1013.3 1013.4 0.0
24/04:30am 4.0 -0.9 1.9 86 0.8 W 17 17 9 9 1013.0 1013.1 0.0
24/04:00am 5.3 1.4 3.3 87 0.8 W 13 15 7 8 1013.1 1013.2 0.0
24/03:30am 6.0 3.2 3.3 83 1.1 SSW 7 9 4 5 1013.0 1013.1 0.0
24/03:00am 6.0 4.3 4.0 87 0.8 SSE 2 9 1 5 1013.0 1013.1 0.0
24/02:30am 6.6 4.3 4.6 87 0.9 SSW 6 9 3 5 1013.0 1013.1 0.0
24/02:00am 7.0 3.2 3.8 80 1.4 W 13 13 7 7 1013.0 1013.1 0.0
24/01:30am 6.1 1.8 3.3 82 1.2 W 15 17 8 9 1013.0 1013.1 0.0
24/01:00am 6.3 2.4 3.3 81 1.3 W 13 17 7 9 1013.0 1013.1 0.0
24/12:30am 5.0 2.2 2.0 81 1.2 WNW 6 9 3 5 1013.1 1013.2 0.0
24/12:00am 5.0 2.5 1.8 80 1.3 NNE 4 7 2 4 1013.2 1013.3 0.0
 
Date/Time
EST
Temp
°C
App
Temp
°C
Dew
Point
Rel
Hum
%
Delta-T
°C
Wind Press
QNH
hPa
Press
MSL
hPa
Rain
since 9 am
mm
Dir
 
Spd
km/h
Gust
km/h
Spd
kts
Gust
kts
23/11:30pm 6.1 3.2 1.6 73 1.8 NW 6 7 3 4 1012.8 1012.9 0.0
23/11:00pm 7.9 3.9 3.0 71 2.1 WNW 13 17 7 9 1013.0 1013.1 0.0

Other Formats:

Comma delimited format used in spreadsheet applications
http://www.bom.gov.au/fwo/IDT60801/IDT60801.95960.axf

JavaScript Object Notation format (JSON) in row-major order
http://www.bom.gov.au/fwo/IDT60801/IDT60801.95960.json